sensor_id;sensor_type;location;lat;lon;timestamp;P1;durP1;ratioP1;P2;durP2;ratioP2
24751;SDS011;27246;52.376;4.628;2023-07-13T00:04:39;9.23;;;3.55;;
24751;SDS011;27246;52.376;4.628;2023-07-13T00:09:40;15.63;;;3.08;;
24751;SDS011;27246;52.376;4.628;2023-07-13T00:14:43;10.27;;;3.45;;
24751;SDS011;27246;52.376;4.628;2023-07-13T00:19:52;9.38;;;2.38;;
24751;SDS011;27246;52.376;4.628;2023-07-13T00:24:57;7.05;;;2.15;;
24751;SDS011;27246;52.376;4.628;2023-07-13T00:29:59;6.70;;;1.38;;
24751;SDS011;27246;52.376;4.628;2023-07-13T00:35:04;4.63;;;1.20;;
24751;SDS011;27246;52.376;4.628;2023-07-13T00:40:14;5.40;;;1.42;;
24751;SDS011;27246;52.376;4.628;2023-07-13T00:50:20;5.20;;;1.65;;
24751;SDS011;27246;52.376;4.628;2023-07-13T00:55:23;5.68;;;1.10;;
24751;SDS011;27246;52.376;4.628;2023-07-13T01:00:25;8.85;;;1.60;;
24751;SDS011;27246;52.376;4.628;2023-07-13T01:05:32;5.13;;;1.20;;
24751;SDS011;27246;52.376;4.628;2023-07-13T01:10:34;7.90;;;1.55;;
24751;SDS011;27246;52.376;4.628;2023-07-13T01:15:41;6.47;;;1.40;;
24751;SDS011;27246;52.376;4.628;2023-07-13T01:20:54;10.25;;;1.40;;
24751;SDS011;27246;52.376;4.628;2023-07-13T01:26:02;4.07;;;1.23;;
24751;SDS011;27246;52.376;4.628;2023-07-13T01:31:04;6.47;;;2.17;;
24751;SDS011;27246;52.376;4.628;2023-07-13T01:36:07;5.78;;;1.63;;
24751;SDS011;27246;52.376;4.628;2023-07-13T01:41:11;5.15;;;1.25;;
24751;SDS011;27246;52.376;4.628;2023-07-13T01:46:12;5.25;;;1.48;;
24751;SDS011;27246;52.376;4.628;2023-07-13T01:51:24;4.82;;;1.30;;
24751;SDS011;27246;52.376;4.628;2023-07-13T01:56:26;4.45;;;1.20;;
24751;SDS011;27246;52.376;4.628;2023-07-13T02:01:28;4.70;;;1.10;;
24751;SDS011;27246;52.376;4.628;2023-07-13T02:06:30;3.97;;;1.50;;
24751;SDS011;27246;52.376;4.628;2023-07-13T02:11:33;6.25;;;1.60;;
24751;SDS011;27246;52.376;4.628;2023-07-13T02:16:35;5.47;;;1.65;;
24751;SDS011;27246;52.376;4.628;2023-07-13T02:21:37;6.43;;;1.70;;
24751;SDS011;27246;52.376;4.628;2023-07-13T02:26:39;6.85;;;1.50;;
24751;SDS011;27246;52.376;4.628;2023-07-13T02:31:41;13.13;;;1.73;;
24751;SDS011;27246;52.376;4.628;2023-07-13T02:36:43;5.60;;;1.92;;
24751;SDS011;27246;52.376;4.628;2023-07-13T02:41:48;4.63;;;1.60;;
24751;SDS011;27246;52.376;4.628;2023-07-13T02:46:49;8.85;;;1.90;;
24751;SDS011;27246;52.376;4.628;2023-07-13T02:51:51;7.75;;;2.20;;
24751;SDS011;27246;52.376;4.628;2023-07-13T02:56:53;5.45;;;2.05;;
24751;SDS011;27246;52.376;4.628;2023-07-13T03:01:55;10.40;;;3.03;;
24751;SDS011;27246;52.376;4.628;2023-07-13T03:07:03;4.60;;;2.45;;
24751;SDS011;27246;52.376;4.628;2023-07-13T03:12:10;3.88;;;1.75;;
24751;SDS011;27246;52.376;4.628;2023-07-13T03:17:12;7.03;;;1.80;;
24751;SDS011;27246;52.376;4.628;2023-07-13T03:22:16;11.50;;;2.53;;
24751;SDS011;27246;52.376;4.628;2023-07-13T03:27:19;6.20;;;1.90;;
24751;SDS011;27246;52.376;4.628;2023-07-13T03:32:23;13.70;;;2.50;;
24751;SDS011;27246;52.376;4.628;2023-07-13T03:37:25;8.65;;;2.42;;
24751;SDS011;27246;52.376;4.628;2023-07-13T03:42:27;6.75;;;2.10;;
24751;SDS011;27246;52.376;4.628;2023-07-13T03:47:28;6.22;;;2.47;;
24751;SDS011;27246;52.376;4.628;2023-07-13T03:52:34;6.97;;;2.30;;
24751;SDS011;27246;52.376;4.628;2023-07-13T03:57:36;8.68;;;2.30;;
24751;SDS011;27246;52.376;4.628;2023-07-13T04:02:42;8.50;;;1.73;;
24751;SDS011;27246;52.376;4.628;2023-07-13T04:07:44;7.15;;;2.50;;
24751;SDS011;27246;52.376;4.628;2023-07-13T04:12:46;6.55;;;2.03;;
24751;SDS011;27246;52.376;4.628;2023-07-13T04:17:48;12.75;;;2.40;;
24751;SDS011;27246;52.376;4.628;2023-07-13T04:22:50;6.07;;;2.33;;
24751;SDS011;27246;52.376;4.628;2023-07-13T04:27:52;6.32;;;2.00;;
24751;SDS011;27246;52.376;4.628;2023-07-13T04:32:55;6.60;;;2.72;;
24751;SDS011;27246;52.376;4.628;2023-07-13T04:37:57;7.38;;;2.30;;
24751;SDS011;27246;52.376;4.628;2023-07-13T04:42:58;12.52;;;2.88;;
24751;SDS011;27246;52.376;4.628;2023-07-13T04:48:00;6.00;;;2.10;;
24751;SDS011;27246;52.376;4.628;2023-07-13T04:53:03;6.93;;;2.00;;
24751;SDS011;27246;52.376;4.628;2023-07-13T04:58:06;7.50;;;2.22;;
24751;SDS011;27246;52.376;4.628;2023-07-13T05:03:08;8.70;;;2.63;;
24751;SDS011;27246;52.376;4.628;2023-07-13T05:08:10;10.88;;;3.65;;
24751;SDS011;27246;52.376;4.628;2023-07-13T05:13:12;5.70;;;2.10;;
24751;SDS011;27246;52.376;4.628;2023-07-13T05:18:14;7.13;;;2.90;;
24751;SDS011;27246;52.376;4.628;2023-07-13T05:23:16;5.88;;;1.88;;
24751;SDS011;27246;52.376;4.628;2023-07-13T05:28:18;10.75;;;2.75;;
24751;SDS011;27246;52.376;4.628;2023-07-13T05:33:21;6.50;;;1.92;;
24751;SDS011;27246;52.376;4.628;2023-07-13T05:38:24;6.35;;;2.42;;
24751;SDS011;27246;52.376;4.628;2023-07-13T05:43:26;8.25;;;2.85;;
24751;SDS011;27246;52.376;4.628;2023-07-13T05:48:28;9.07;;;2.70;;
24751;SDS011;27246;52.376;4.628;2023-07-13T05:53:31;10.00;;;2.33;;
24751;SDS011;27246;52.376;4.628;2023-07-13T05:58:34;4.57;;;2.30;;
24751;SDS011;27246;52.376;4.628;2023-07-13T06:03:36;7.70;;;2.67;;
24751;SDS011;27246;52.376;4.628;2023-07-13T06:08:41;6.20;;;2.83;;
24751;SDS011;27246;52.376;4.628;2023-07-13T06:13:43;11.73;;;2.20;;
24751;SDS011;27246;52.376;4.628;2023-07-13T06:18:45;10.43;;;2.58;;
24751;SDS011;27246;52.376;4.628;2023-07-13T06:23:48;7.28;;;2.40;;
24751;SDS011;27246;52.376;4.628;2023-07-13T06:28:52;6.28;;;2.20;;
24751;SDS011;27246;52.376;4.628;2023-07-13T06:33:54;5.45;;;2.28;;
24751;SDS011;27246;52.376;4.628;2023-07-13T06:38:56;7.75;;;2.28;;
24751;SDS011;27246;52.376;4.628;2023-07-13T06:43:57;5.70;;;2.35;;
24751;SDS011;27246;52.376;4.628;2023-07-13T06:48:59;7.13;;;2.38;;
24751;SDS011;27246;52.376;4.628;2023-07-13T06:54:06;8.60;;;2.35;;
24751;SDS011;27246;52.376;4.628;2023-07-13T06:59:08;8.57;;;2.72;;
24751;SDS011;27246;52.376;4.628;2023-07-13T07:04:10;5.70;;;2.15;;
24751;SDS011;27246;52.376;4.628;2023-07-13T07:09:12;8.93;;;2.28;;
24751;SDS011;27246;52.376;4.628;2023-07-13T07:14:15;6.28;;;2.25;;
24751;SDS011;27246;52.376;4.628;2023-07-13T07:19:17;5.80;;;2.00;;
24751;SDS011;27246;52.376;4.628;2023-07-13T07:24:19;7.93;;;2.45;;
24751;SDS011;27246;52.376;4.628;2023-07-13T07:29:21;9.32;;;3.00;;
24751;SDS011;27246;52.376;4.628;2023-07-13T07:34:26;6.03;;;2.70;;
24751;SDS011;27246;52.376;4.628;2023-07-13T07:39:28;5.93;;;2.28;;
24751;SDS011;27246;52.376;4.628;2023-07-13T07:44:31;15.38;;;3.70;;
24751;SDS011;27246;52.376;4.628;2023-07-13T07:49:36;5.35;;;2.55;;
24751;SDS011;27246;52.376;4.628;2023-07-13T07:54:40;9.35;;;2.45;;
24751;SDS011;27246;52.376;4.628;2023-07-13T07:59:47;6.88;;;2.25;;
24751;SDS011;27246;52.376;4.628;2023-07-13T08:04:52;6.38;;;2.33;;
24751;SDS011;27246;52.376;4.628;2023-07-13T08:09:57;3.83;;;2.40;;
24751;SDS011;27246;52.376;4.628;2023-07-13T08:14:59;5.82;;;2.65;;
24751;SDS011;27246;52.376;4.628;2023-07-13T08:20:04;5.55;;;2.35;;
24751;SDS011;27246;52.376;4.628;2023-07-13T08:25:07;10.98;;;2.97;;
24751;SDS011;27246;52.376;4.628;2023-07-13T08:30:10;10.77;;;3.15;;
24751;SDS011;27246;52.376;4.628;2023-07-13T08:35:12;6.68;;;2.95;;
24751;SDS011;27246;52.376;4.628;2023-07-13T08:40:15;9.60;;;3.10;;
24751;SDS011;27246;52.376;4.628;2023-07-13T08:50:48;6.25;;;2.35;;
24751;SDS011;27246;52.376;4.628;2023-07-13T08:56:02;4.45;;;2.50;;
24751;SDS011;27246;52.376;4.628;2023-07-13T09:01:22;5.32;;;2.42;;
24751;SDS011;27246;52.376;4.628;2023-07-13T09:17:20;7.20;;;2.05;;
24751;SDS011;27246;52.376;4.628;2023-07-13T09:22:29;6.55;;;2.42;;
24751;SDS011;27246;52.376;4.628;2023-07-13T09:27:37;7.37;;;2.40;;
24751;SDS011;27246;52.376;4.628;2023-07-13T09:32:41;5.47;;;2.33;;
24751;SDS011;27246;52.376;4.628;2023-07-13T09:37:49;6.75;;;2.38;;
24751;SDS011;27246;52.376;4.628;2023-07-13T09:42:52;4.30;;;2.53;;
24751;SDS011;27246;52.376;4.628;2023-07-13T09:47:59;7.03;;;2.50;;
24751;SDS011;27246;52.376;4.628;2023-07-13T09:53:16;6.97;;;2.20;;
24751;SDS011;27246;52.376;4.628;2023-07-13T09:58:21;7.18;;;2.63;;
24751;SDS011;27246;52.376;4.628;2023-07-13T10:03:27;5.65;;;2.50;;
24751;SDS011;27246;52.376;4.628;2023-07-13T10:08:34;8.15;;;2.85;;
24751;SDS011;27246;52.376;4.628;2023-07-13T10:13:39;7.60;;;2.80;;
24751;SDS011;27246;52.376;4.628;2023-07-13T10:19:19;6.82;;;2.25;;
24751;SDS011;27246;52.376;4.628;2023-07-13T10:24:29;4.68;;;2.20;;
24751;SDS011;27246;52.376;4.628;2023-07-13T10:29:35;10.35;;;3.20;;
24751;SDS011;27246;52.376;4.628;2023-07-13T10:34:40;7.25;;;3.55;;
24751;SDS011;27246;52.376;4.628;2023-07-13T10:39:46;6.55;;;2.22;;
24751;SDS011;27246;52.376;4.628;2023-07-13T10:44:49;6.35;;;2.42;;
24751;SDS011;27246;52.376;4.628;2023-07-13T10:49:53;7.85;;;3.03;;
24751;SDS011;27246;52.376;4.628;2023-07-13T10:54:59;10.20;;;3.20;;
24751;SDS011;27246;52.376;4.628;2023-07-13T11:00:15;8.13;;;2.97;;
24751;SDS011;27246;52.376;4.628;2023-07-13T11:05:30;8.75;;;2.60;;
24751;SDS011;27246;52.376;4.628;2023-07-13T11:10:54;11.07;;;3.00;;
24751;SDS011;27246;52.376;4.628;2023-07-13T11:15:57;8.23;;;2.53;;
24751;SDS011;27246;52.376;4.628;2023-07-13T11:21:21;7.07;;;2.72;;
24751;SDS011;27246;52.376;4.628;2023-07-13T11:31:53;8.90;;;2.33;;
24751;SDS011;27246;52.376;4.628;2023-07-13T11:36:59;5.32;;;2.17;;
24751;SDS011;27246;52.376;4.628;2023-07-13T11:42:05;9.32;;;3.03;;
24751;SDS011;27246;52.376;4.628;2023-07-13T11:47:18;7.83;;;2.33;;
24751;SDS011;27246;52.376;4.628;2023-07-13T11:52:30;5.97;;;2.58;;
24751;SDS011;27246;52.376;4.628;2023-07-13T11:57:40;7.20;;;2.72;;
24751;SDS011;27246;52.376;4.628;2023-07-13T12:02:50;8.25;;;2.85;;
24751;SDS011;27246;52.376;4.628;2023-07-13T12:07:56;10.10;;;3.75;;
24751;SDS011;27246;52.376;4.628;2023-07-13T12:13:00;10.02;;;3.45;;
24751;SDS011;27246;52.376;4.628;2023-07-13T12:18:13;4.90;;;2.67;;
24751;SDS011;27246;52.376;4.628;2023-07-13T12:23:28;6.05;;;2.60;;
24751;SDS011;27246;52.376;4.628;2023-07-13T12:28:35;4.72;;;2.58;;
24751;SDS011;27246;52.376;4.628;2023-07-13T12:33:39;5.80;;;2.47;;
24751;SDS011;27246;52.376;4.628;2023-07-13T12:38:44;6.20;;;2.88;;
24751;SDS011;27246;52.376;4.628;2023-07-13T12:43:48;5.90;;;2.65;;
24751;SDS011;27246;52.376;4.628;2023-07-13T12:48:50;7.88;;;3.65;;
24751;SDS011;27246;52.376;4.628;2023-07-13T12:54:16;6.78;;;2.40;;
24751;SDS011;27246;52.376;4.628;2023-07-13T12:59:21;15.57;;;4.00;;
24751;SDS011;27246;52.376;4.628;2023-07-13T13:04:24;9.05;;;3.17;;
24751;SDS011;27246;52.376;4.628;2023-07-13T13:09:27;6.80;;;3.13;;
24751;SDS011;27246;52.376;4.628;2023-07-13T13:14:29;6.47;;;2.97;;
24751;SDS011;27246;52.376;4.628;2023-07-13T13:19:33;5.03;;;2.38;;
24751;SDS011;27246;52.376;4.628;2023-07-13T13:24:35;8.40;;;2.53;;
24751;SDS011;27246;52.376;4.628;2023-07-13T13:29:37;4.90;;;2.40;;
24751;SDS011;27246;52.376;4.628;2023-07-13T13:34:41;5.47;;;2.80;;
24751;SDS011;27246;52.376;4.628;2023-07-13T13:39:44;5.15;;;2.08;;
24751;SDS011;27246;52.376;4.628;2023-07-13T13:44:58;5.95;;;2.00;;
24751;SDS011;27246;52.376;4.628;2023-07-13T13:50:01;6.85;;;2.80;;
24751;SDS011;27246;52.376;4.628;2023-07-13T14:00:34;9.38;;;2.75;;
24751;SDS011;27246;52.376;4.628;2023-07-13T14:10:46;9.80;;;2.45;;
24751;SDS011;27246;52.376;4.628;2023-07-13T14:15:51;4.18;;;2.03;;
24751;SDS011;27246;52.376;4.628;2023-07-13T14:20:54;6.47;;;2.40;;
24751;SDS011;27246;52.376;4.628;2023-07-13T14:25:56;8.05;;;2.33;;
24751;SDS011;27246;52.376;4.628;2023-07-13T14:30:58;5.38;;;2.38;;
24751;SDS011;27246;52.376;4.628;2023-07-13T14:36:01;5.55;;;2.08;;
24751;SDS011;27246;52.376;4.628;2023-07-13T14:41:17;3.85;;;2.08;;
24751;SDS011;27246;52.376;4.628;2023-07-13T14:51:36;7.65;;;2.65;;
24751;SDS011;27246;52.376;4.628;2023-07-13T14:56:39;3.10;;;2.15;;
24751;SDS011;27246;52.376;4.628;2023-07-13T15:01:41;5.25;;;2.55;;
24751;SDS011;27246;52.376;4.628;2023-07-13T15:06:55;7.38;;;2.50;;
24751;SDS011;27246;52.376;4.628;2023-07-13T15:11:58;6.00;;;2.45;;
24751;SDS011;27246;52.376;4.628;2023-07-13T15:17:00;6.60;;;2.20;;
24751;SDS011;27246;52.376;4.628;2023-07-13T15:22:03;5.07;;;2.40;;
24751;SDS011;27246;52.376;4.628;2023-07-13T15:27:13;5.97;;;2.50;;
24751;SDS011;27246;52.376;4.628;2023-07-13T15:32:15;6.05;;;2.15;;
24751;SDS011;27246;52.376;4.628;2023-07-13T15:37:17;5.07;;;2.20;;
24751;SDS011;27246;52.376;4.628;2023-07-13T15:42:22;5.55;;;2.40;;
24751;SDS011;27246;52.376;4.628;2023-07-13T15:47:24;7.07;;;2.28;;
24751;SDS011;27246;52.376;4.628;2023-07-13T15:52:26;5.88;;;2.50;;
24751;SDS011;27246;52.376;4.628;2023-07-13T15:57:30;3.13;;;1.65;;
24751;SDS011;27246;52.376;4.628;2023-07-13T16:02:32;4.85;;;2.25;;
24751;SDS011;27246;52.376;4.628;2023-07-13T16:07:36;5.45;;;2.00;;
24751;SDS011;27246;52.376;4.628;2023-07-13T16:12:38;4.68;;;2.20;;
24751;SDS011;27246;52.376;4.628;2023-07-13T16:17:44;4.10;;;1.77;;
24751;SDS011;27246;52.376;4.628;2023-07-13T16:22:47;4.80;;;2.17;;
24751;SDS011;27246;52.376;4.628;2023-07-13T16:27:52;2.35;;;1.65;;
24751;SDS011;27246;52.376;4.628;2023-07-13T16:33:02;6.50;;;2.72;;
24751;SDS011;27246;52.376;4.628;2023-07-13T16:38:14;6.28;;;1.80;;
24751;SDS011;27246;52.376;4.628;2023-07-13T16:43:19;6.93;;;1.98;;
24751;SDS011;27246;52.376;4.628;2023-07-13T16:48:23;7.05;;;2.28;;
24751;SDS011;27246;52.376;4.628;2023-07-13T16:53:29;8.82;;;2.50;;
24751;SDS011;27246;52.376;4.628;2023-07-13T16:58:33;5.20;;;2.50;;
24751;SDS011;27246;52.376;4.628;2023-07-13T17:03:36;9.25;;;2.78;;
24751;SDS011;27246;52.376;4.628;2023-07-13T17:08:39;6.35;;;2.40;;
24751;SDS011;27246;52.376;4.628;2023-07-13T17:13:41;8.95;;;2.40;;
24751;SDS011;27246;52.376;4.628;2023-07-13T17:18:44;7.15;;;2.70;;
24751;SDS011;27246;52.376;4.628;2023-07-13T17:23:49;8.48;;;2.65;;
24751;SDS011;27246;52.376;4.628;2023-07-13T17:28:53;6.32;;;2.22;;
24751;SDS011;27246;52.376;4.628;2023-07-13T17:33:55;4.75;;;1.98;;
24751;SDS011;27246;52.376;4.628;2023-07-13T17:38:58;6.97;;;2.17;;
24751;SDS011;27246;52.376;4.628;2023-07-13T17:44:00;6.07;;;2.20;;
24751;SDS011;27246;52.376;4.628;2023-07-13T17:49:03;7.45;;;2.55;;
24751;SDS011;27246;52.376;4.628;2023-07-13T17:54:12;6.25;;;2.38;;
24751;SDS011;27246;52.376;4.628;2023-07-13T17:59:15;6.82;;;2.17;;
24751;SDS011;27246;52.376;4.628;2023-07-13T18:04:18;9.10;;;2.53;;
24751;SDS011;27246;52.376;4.628;2023-07-13T18:09:25;4.10;;;1.85;;
24751;SDS011;27246;52.376;4.628;2023-07-13T18:14:28;5.35;;;2.00;;
24751;SDS011;27246;52.376;4.628;2023-07-13T18:24:34;5.60;;;2.03;;
24751;SDS011;27246;52.376;4.628;2023-07-13T18:29:42;8.48;;;2.70;;
24751;SDS011;27246;52.376;4.628;2023-07-13T18:34:44;6.15;;;2.03;;
24751;SDS011;27246;52.376;4.628;2023-07-13T18:39:48;4.82;;;2.30;;
24751;SDS011;27246;52.376;4.628;2023-07-13T18:44:54;6.10;;;2.33;;
24751;SDS011;27246;52.376;4.628;2023-07-13T18:49:58;8.18;;;2.33;;
24751;SDS011;27246;52.376;4.628;2023-07-13T18:55:09;6.80;;;2.03;;
24751;SDS011;27246;52.376;4.628;2023-07-13T19:00:15;6.70;;;1.90;;
24751;SDS011;27246;52.376;4.628;2023-07-13T19:05:22;5.90;;;2.35;;
24751;SDS011;27246;52.376;4.628;2023-07-13T19:10:27;8.10;;;2.35;;
24751;SDS011;27246;52.376;4.628;2023-07-13T19:15:30;5.35;;;2.42;;
24751;SDS011;27246;52.376;4.628;2023-07-13T19:20:34;7.28;;;2.20;;
24751;SDS011;27246;52.376;4.628;2023-07-13T19:25:36;3.92;;;1.90;;
24751;SDS011;27246;52.376;4.628;2023-07-13T19:30:38;4.68;;;1.80;;
24751;SDS011;27246;52.376;4.628;2023-07-13T19:35:40;4.22;;;1.50;;
24751;SDS011;27246;52.376;4.628;2023-07-13T19:40:44;5.57;;;2.03;;
24751;SDS011;27246;52.376;4.628;2023-07-13T19:45:47;6.82;;;1.63;;
24751;SDS011;27246;52.376;4.628;2023-07-13T19:50:51;7.03;;;1.77;;
24751;SDS011;27246;52.376;4.628;2023-07-13T19:55:53;5.35;;;1.50;;
24751;SDS011;27246;52.376;4.628;2023-07-13T20:00:56;3.97;;;1.75;;
24751;SDS011;27246;52.376;4.628;2023-07-13T20:05:57;5.03;;;1.27;;
24751;SDS011;27246;52.376;4.628;2023-07-13T20:10:59;3.10;;;1.23;;
24751;SDS011;27246;52.376;4.628;2023-07-13T20:16:04;2.17;;;1.33;;
24751;SDS011;27246;52.376;4.628;2023-07-13T20:21:07;4.80;;;1.92;;
24751;SDS011;27246;52.376;4.628;2023-07-13T20:26:13;7.60;;;1.90;;
24751;SDS011;27246;52.376;4.628;2023-07-13T20:31:15;4.60;;;1.98;;
24751;SDS011;27246;52.376;4.628;2023-07-13T20:36:17;4.53;;;1.27;;
24751;SDS011;27246;52.376;4.628;2023-07-13T20:41:19;2.90;;;1.40;;
24751;SDS011;27246;52.376;4.628;2023-07-13T20:46:21;5.00;;;1.30;;
24751;SDS011;27246;52.376;4.628;2023-07-13T20:51:23;4.05;;;1.20;;
24751;SDS011;27246;52.376;4.628;2023-07-13T20:56:26;7.30;;;1.80;;
24751;SDS011;27246;52.376;4.628;2023-07-13T21:01:34;9.50;;;2.00;;
24751;SDS011;27246;52.376;4.628;2023-07-13T21:06:39;2.88;;;1.20;;
24751;SDS011;27246;52.376;4.628;2023-07-13T21:11:41;5.63;;;1.58;;
24751;SDS011;27246;52.376;4.628;2023-07-13T21:16:43;7.97;;;1.77;;
24751;SDS011;27246;52.376;4.628;2023-07-13T21:21:45;4.88;;;1.73;;
24751;SDS011;27246;52.376;4.628;2023-07-13T21:26:47;7.35;;;2.08;;
24751;SDS011;27246;52.376;4.628;2023-07-13T21:31:50;5.82;;;2.28;;
24751;SDS011;27246;52.376;4.628;2023-07-13T21:36:52;7.30;;;2.03;;
24751;SDS011;27246;52.376;4.628;2023-07-13T21:42:00;8.05;;;1.98;;
24751;SDS011;27246;52.376;4.628;2023-07-13T21:47:03;4.28;;;1.90;;
24751;SDS011;27246;52.376;4.628;2023-07-13T21:52:10;5.03;;;2.28;;
24751;SDS011;27246;52.376;4.628;2023-07-13T21:57:17;5.43;;;1.95;;
24751;SDS011;27246;52.376;4.628;2023-07-13T22:02:19;7.32;;;2.20;;
24751;SDS011;27246;52.376;4.628;2023-07-13T22:07:21;5.65;;;2.00;;
24751;SDS011;27246;52.376;4.628;2023-07-13T22:12:23;7.82;;;1.80;;
24751;SDS011;27246;52.376;4.628;2023-07-13T22:17:25;7.78;;;1.70;;
24751;SDS011;27246;52.376;4.628;2023-07-13T22:22:28;11.30;;;3.03;;
24751;SDS011;27246;52.376;4.628;2023-07-13T22:27:30;9.13;;;2.40;;
24751;SDS011;27246;52.376;4.628;2023-07-13T22:32:33;4.78;;;1.98;;
24751;SDS011;27246;52.376;4.628;2023-07-13T22:37:35;7.15;;;2.28;;
24751;SDS011;27246;52.376;4.628;2023-07-13T22:42:37;7.95;;;2.67;;
24751;SDS011;27246;52.376;4.628;2023-07-13T22:47:40;5.60;;;2.45;;
24751;SDS011;27246;52.376;4.628;2023-07-13T22:52:42;7.57;;;2.45;;
24751;SDS011;27246;52.376;4.628;2023-07-13T22:57:46;6.95;;;2.88;;
24751;SDS011;27246;52.376;4.628;2023-07-13T23:02:50;8.00;;;2.65;;
24751;SDS011;27246;52.376;4.628;2023-07-13T23:07:52;6.20;;;2.65;;
24751;SDS011;27246;52.376;4.628;2023-07-13T23:12:54;6.95;;;2.50;;
24751;SDS011;27246;52.376;4.628;2023-07-13T23:18:04;9.60;;;2.35;;
24751;SDS011;27246;52.376;4.628;2023-07-13T23:23:13;7.40;;;2.10;;
24751;SDS011;27246;52.376;4.628;2023-07-13T23:28:19;7.15;;;2.90;;
24751;SDS011;27246;52.376;4.628;2023-07-13T23:33:24;6.10;;;2.28;;
24751;SDS011;27246;52.376;4.628;2023-07-13T23:38:27;7.57;;;2.42;;
24751;SDS011;27246;52.376;4.628;2023-07-13T23:43:29;5.32;;;2.35;;
24751;SDS011;27246;52.376;4.628;2023-07-13T23:48:33;8.45;;;2.40;;
24751;SDS011;27246;52.376;4.628;2023-07-13T23:53:35;8.80;;;2.35;;
24751;SDS011;27246;52.376;4.628;2023-07-13T23:58:37;5.22;;;2.03;;
